sensor_id;sensor_type;location;lat;lon;timestamp;P1;durP1;ratioP1;P2;durP2;ratioP2
46723;SDS011;32463;48.298;11.620;2023-06-26T00:02:11;10.85;;;8.02;;
46723;SDS011;32463;48.298;11.620;2023-06-26T00:04:38;11.60;;;8.10;;
46723;SDS011;32463;48.298;11.620;2023-06-26T00:07:05;13.65;;;9.35;;
46723;SDS011;32463;48.298;11.620;2023-06-26T00:09:31;12.40;;;8.73;;
46723;SDS011;32463;48.298;11.620;2023-06-26T00:11:58;14.88;;;9.20;;
46723;SDS011;32463;48.298;11.620;2023-06-26T00:14:25;14.00;;;8.98;;
46723;SDS011;32463;48.298;11.620;2023-06-26T00:16:51;15.73;;;8.23;;
46723;SDS011;32463;48.298;11.620;2023-06-26T00:19:18;12.40;;;8.43;;
46723;SDS011;32463;48.298;11.620;2023-06-26T00:21:45;16.25;;;9.15;;
46723;SDS011;32463;48.298;11.620;2023-06-26T00:24:15;16.02;;;9.40;;
46723;SDS011;32463;48.298;11.620;2023-06-26T00:26:43;14.93;;;9.07;;
46723;SDS011;32463;48.298;11.620;2023-06-26T00:29:12;11.75;;;7.93;;
46723;SDS011;32463;48.298;11.620;2023-06-26T00:31:39;11.98;;;8.35;;
46723;SDS011;32463;48.298;11.620;2023-06-26T00:34:06;11.02;;;8.45;;
46723;SDS011;32463;48.298;11.620;2023-06-26T00:36:32;10.90;;;7.82;;
46723;SDS011;32463;48.298;11.620;2023-06-26T00:38:59;14.90;;;8.13;;
46723;SDS011;32463;48.298;11.620;2023-06-26T00:41:25;11.77;;;8.27;;
46723;SDS011;32463;48.298;11.620;2023-06-26T00:43:52;14.98;;;9.80;;
46723;SDS011;32463;48.298;11.620;2023-06-26T00:46:18;13.40;;;9.32;;
46723;SDS011;32463;48.298;11.620;2023-06-26T00:48:46;11.85;;;8.23;;
46723;SDS011;32463;48.298;11.620;2023-06-26T00:51:14;13.40;;;9.43;;
46723;SDS011;32463;48.298;11.620;2023-06-26T00:53:41;13.70;;;9.05;;
46723;SDS011;32463;48.298;11.620;2023-06-26T00:56:08;14.45;;;9.25;;
46723;SDS011;32463;48.298;11.620;2023-06-26T00:58:36;10.93;;;7.90;;
46723;SDS011;32463;48.298;11.620;2023-06-26T01:01:02;14.70;;;8.77;;
46723;SDS011;32463;48.298;11.620;2023-06-26T01:03:31;11.73;;;8.48;;
46723;SDS011;32463;48.298;11.620;2023-06-26T01:05:57;11.70;;;8.60;;
46723;SDS011;32463;48.298;11.620;2023-06-26T01:08:25;10.73;;;8.02;;
46723;SDS011;32463;48.298;11.620;2023-06-26T01:10:53;12.90;;;8.43;;
46723;SDS011;32463;48.298;11.620;2023-06-26T01:13:19;12.05;;;8.75;;
46723;SDS011;32463;48.298;11.620;2023-06-26T01:15:46;11.43;;;8.60;;
46723;SDS011;32463;48.298;11.620;2023-06-26T01:18:14;13.00;;;8.63;;
46723;SDS011;32463;48.298;11.620;2023-06-26T01:20:41;12.85;;;8.23;;
46723;SDS011;32463;48.298;11.620;2023-06-26T01:26:19;11.50;;;8.30;;
46723;SDS011;32463;48.298;11.620;2023-06-26T01:28:47;14.25;;;9.55;;
46723;SDS011;32463;48.298;11.620;2023-06-26T01:31:16;13.93;;;8.93;;
46723;SDS011;32463;48.298;11.620;2023-06-26T01:33:43;13.90;;;9.10;;
46723;SDS011;32463;48.298;11.620;2023-06-26T01:36:11;12.23;;;8.75;;
46723;SDS011;32463;48.298;11.620;2023-06-26T01:38:38;13.25;;;9.50;;
46723;SDS011;32463;48.298;11.620;2023-06-26T01:41:05;12.88;;;9.55;;
46723;SDS011;32463;48.298;11.620;2023-06-26T01:48:46;15.00;;;10.32;;
46723;SDS011;32463;48.298;11.620;2023-06-26T01:51:21;12.60;;;9.70;;
46723;SDS011;32463;48.298;11.620;2023-06-26T01:53:56;13.60;;;9.65;;
46723;SDS011;32463;48.298;11.620;2023-06-26T01:56:24;12.77;;;9.85;;
46723;SDS011;32463;48.298;11.620;2023-06-26T01:58:51;13.70;;;9.25;;
46723;SDS011;32463;48.298;11.620;2023-06-26T02:01:20;11.25;;;8.75;;
46723;SDS011;32463;48.298;11.620;2023-06-26T02:03:47;13.13;;;9.07;;
46723;SDS011;32463;48.298;11.620;2023-06-26T02:06:14;12.90;;;9.45;;
46723;SDS011;32463;48.298;11.620;2023-06-26T02:08:41;13.38;;;9.48;;
46723;SDS011;32463;48.298;11.620;2023-06-26T02:11:08;14.65;;;9.98;;
46723;SDS011;32463;48.298;11.620;2023-06-26T02:13:34;12.32;;;9.20;;
46723;SDS011;32463;48.298;11.620;2023-06-26T02:16:00;13.50;;;9.88;;
46723;SDS011;32463;48.298;11.620;2023-06-26T02:18:27;13.00;;;9.70;;
46723;SDS011;32463;48.298;11.620;2023-06-26T02:20:53;13.23;;;9.63;;
46723;SDS011;32463;48.298;11.620;2023-06-26T02:23:20;15.18;;;9.75;;
46723;SDS011;32463;48.298;11.620;2023-06-26T02:25:46;12.48;;;9.38;;
46723;SDS011;32463;48.298;11.620;2023-06-26T02:28:12;12.20;;;9.43;;
46723;SDS011;32463;48.298;11.620;2023-06-26T02:30:39;14.93;;;10.23;;
46723;SDS011;32463;48.298;11.620;2023-06-26T02:33:05;12.70;;;9.38;;
46723;SDS011;32463;48.298;11.620;2023-06-26T02:35:31;13.30;;;9.55;;
46723;SDS011;32463;48.298;11.620;2023-06-26T02:37:59;13.93;;;9.23;;
46723;SDS011;32463;48.298;11.620;2023-06-26T02:40:25;13.95;;;9.23;;
46723;SDS011;32463;48.298;11.620;2023-06-26T02:42:51;12.80;;;9.10;;
46723;SDS011;32463;48.298;11.620;2023-06-26T02:45:18;13.00;;;9.23;;
46723;SDS011;32463;48.298;11.620;2023-06-26T02:47:44;13.30;;;10.23;;
46723;SDS011;32463;48.298;11.620;2023-06-26T02:50:11;13.77;;;10.48;;
46723;SDS011;32463;48.298;11.620;2023-06-26T02:52:37;13.80;;;10.25;;
46723;SDS011;32463;48.298;11.620;2023-06-26T02:55:04;14.18;;;9.90;;
46723;SDS011;32463;48.298;11.620;2023-06-26T02:57:31;12.70;;;10.07;;
46723;SDS011;32463;48.298;11.620;2023-06-26T02:59:58;15.02;;;9.52;;
46723;SDS011;32463;48.298;11.620;2023-06-26T03:02:25;14.30;;;9.70;;
46723;SDS011;32463;48.298;11.620;2023-06-26T03:04:52;14.95;;;10.45;;
46723;SDS011;32463;48.298;11.620;2023-06-26T03:07:18;14.07;;;10.50;;
46723;SDS011;32463;48.298;11.620;2023-06-26T03:09:45;16.27;;;10.50;;
46723;SDS011;32463;48.298;11.620;2023-06-26T03:12:11;14.45;;;10.80;;
46723;SDS011;32463;48.298;11.620;2023-06-26T03:14:38;15.20;;;10.82;;
46723;SDS011;32463;48.298;11.620;2023-06-26T03:17:04;17.60;;;10.93;;
46723;SDS011;32463;48.298;11.620;2023-06-26T03:19:32;13.02;;;10.10;;
46723;SDS011;32463;48.298;11.620;2023-06-26T03:21:58;14.00;;;11.02;;
46723;SDS011;32463;48.298;11.620;2023-06-26T03:24:25;15.77;;;10.82;;
46723;SDS011;32463;48.298;11.620;2023-06-26T03:26:51;16.02;;;11.32;;
46723;SDS011;32463;48.298;11.620;2023-06-26T03:29:17;16.75;;;11.85;;
46723;SDS011;32463;48.298;11.620;2023-06-26T03:31:44;18.45;;;11.95;;
46723;SDS011;32463;48.298;11.620;2023-06-26T03:34:10;13.45;;;10.63;;
46723;SDS011;32463;48.298;11.620;2023-06-26T03:36:37;16.00;;;10.95;;
46723;SDS011;32463;48.298;11.620;2023-06-26T03:39:03;16.67;;;11.43;;
46723;SDS011;32463;48.298;11.620;2023-06-26T03:41:30;15.65;;;11.50;;
46723;SDS011;32463;48.298;11.620;2023-06-26T03:43:57;17.42;;;12.20;;
46723;SDS011;32463;48.298;11.620;2023-06-26T03:46:25;19.75;;;12.13;;
46723;SDS011;32463;48.298;11.620;2023-06-26T03:48:52;16.75;;;11.82;;
46723;SDS011;32463;48.298;11.620;2023-06-26T03:51:18;14.95;;;11.43;;
46723;SDS011;32463;48.298;11.620;2023-06-26T03:53:45;14.70;;;11.35;;
46723;SDS011;32463;48.298;11.620;2023-06-26T03:56:11;16.65;;;11.70;;
46723;SDS011;32463;48.298;11.620;2023-06-26T03:58:39;13.77;;;10.77;;
46723;SDS011;32463;48.298;11.620;2023-06-26T04:01:05;16.90;;;11.07;;
46723;SDS011;32463;48.298;11.620;2023-06-26T04:03:33;15.98;;;10.88;;
46723;SDS011;32463;48.298;11.620;2023-06-26T04:06:00;17.20;;;11.40;;
46723;SDS011;32463;48.298;11.620;2023-06-26T04:08:26;13.80;;;10.88;;
46723;SDS011;32463;48.298;11.620;2023-06-26T04:10:53;13.20;;;10.02;;
46723;SDS011;32463;48.298;11.620;2023-06-26T04:13:22;15.38;;;10.25;;
46723;SDS011;32463;48.298;11.620;2023-06-26T04:15:48;13.57;;;10.15;;
46723;SDS011;32463;48.298;11.620;2023-06-26T04:18:15;15.30;;;9.90;;
46723;SDS011;32463;48.298;11.620;2023-06-26T04:20:42;14.68;;;10.18;;
46723;SDS011;32463;48.298;11.620;2023-06-26T04:23:30;14.27;;;9.88;;
46723;SDS011;32463;48.298;11.620;2023-06-26T04:25:57;13.82;;;10.07;;
46723;SDS011;32463;48.298;11.620;2023-06-26T04:28:24;14.50;;;10.05;;
46723;SDS011;32463;48.298;11.620;2023-06-26T04:30:51;13.20;;;9.88;;
46723;SDS011;32463;48.298;11.620;2023-06-26T04:33:18;14.77;;;9.95;;
46723;SDS011;32463;48.298;11.620;2023-06-26T04:35:45;15.80;;;9.10;;
46723;SDS011;32463;48.298;11.620;2023-06-26T04:38:14;18.85;;;10.30;;
46723;SDS011;32463;48.298;11.620;2023-06-26T04:40:41;66.45;;;46.15;;
46723;SDS011;32463;48.298;11.620;2023-06-26T04:43:07;19.33;;;12.63;;
46723;SDS011;32463;48.298;11.620;2023-06-26T04:45:34;14.30;;;10.02;;
46723;SDS011;32463;48.298;11.620;2023-06-26T04:48:00;14.30;;;10.07;;
46723;SDS011;32463;48.298;11.620;2023-06-26T04:50:26;15.63;;;10.07;;
46723;SDS011;32463;48.298;11.620;2023-06-26T04:52:54;14.20;;;9.68;;
46723;SDS011;32463;48.298;11.620;2023-06-26T04:55:20;11.95;;;8.95;;
46723;SDS011;32463;48.298;11.620;2023-06-26T04:57:48;14.65;;;10.15;;
46723;SDS011;32463;48.298;11.620;2023-06-26T05:00:15;14.90;;;9.70;;
46723;SDS011;32463;48.298;11.620;2023-06-26T05:02:41;13.48;;;9.65;;
46723;SDS011;32463;48.298;11.620;2023-06-26T05:05:08;13.32;;;10.40;;
46723;SDS011;32463;48.298;11.620;2023-06-26T05:07:35;16.45;;;11.45;;
46723;SDS011;32463;48.298;11.620;2023-06-26T05:10:04;16.08;;;10.38;;
46723;SDS011;32463;48.298;11.620;2023-06-26T05:12:31;14.25;;;9.93;;
46723;SDS011;32463;48.298;11.620;2023-06-26T05:14:57;15.13;;;10.18;;
46723;SDS011;32463;48.298;11.620;2023-06-26T05:17:24;16.35;;;10.63;;
46723;SDS011;32463;48.298;11.620;2023-06-26T05:19:50;20.60;;;12.07;;
46723;SDS011;32463;48.298;11.620;2023-06-26T05:22:16;16.60;;;10.65;;
46723;SDS011;32463;48.298;11.620;2023-06-26T05:24:44;13.85;;;10.40;;
46723;SDS011;32463;48.298;11.620;2023-06-26T05:27:12;14.80;;;10.30;;
46723;SDS011;32463;48.298;11.620;2023-06-26T05:29:46;19.88;;;10.85;;
46723;SDS011;32463;48.298;11.620;2023-06-26T05:32:13;15.48;;;10.20;;
46723;SDS011;32463;48.298;11.620;2023-06-26T05:34:42;17.20;;;9.48;;
46723;SDS011;32463;48.298;11.620;2023-06-26T05:37:13;17.30;;;10.43;;
46723;SDS011;32463;48.298;11.620;2023-06-26T05:39:44;16.33;;;10.20;;
46723;SDS011;32463;48.298;11.620;2023-06-26T05:42:11;14.85;;;9.27;;
46723;SDS011;32463;48.298;11.620;2023-06-26T05:44:38;13.93;;;9.60;;
46723;SDS011;32463;48.298;11.620;2023-06-26T05:47:05;14.73;;;9.10;;
46723;SDS011;32463;48.298;11.620;2023-06-26T05:49:31;13.40;;;9.43;;
46723;SDS011;32463;48.298;11.620;2023-06-26T05:51:58;15.57;;;9.65;;
46723;SDS011;32463;48.298;11.620;2023-06-26T05:54:24;14.07;;;9.95;;
46723;SDS011;32463;48.298;11.620;2023-06-26T05:56:52;15.27;;;9.85;;
46723;SDS011;32463;48.298;11.620;2023-06-26T05:59:24;16.90;;;9.90;;
46723;SDS011;32463;48.298;11.620;2023-06-26T06:01:51;14.20;;;9.55;;
46723;SDS011;32463;48.298;11.620;2023-06-26T06:04:18;13.80;;;9.60;;
46723;SDS011;32463;48.298;11.620;2023-06-26T06:06:44;14.25;;;9.85;;
46723;SDS011;32463;48.298;11.620;2023-06-26T06:09:11;15.55;;;9.70;;
46723;SDS011;32463;48.298;11.620;2023-06-26T06:11:37;12.93;;;10.00;;
46723;SDS011;32463;48.298;11.620;2023-06-26T06:14:03;15.45;;;9.45;;
46723;SDS011;32463;48.298;11.620;2023-06-26T06:16:30;12.05;;;9.60;;
46723;SDS011;32463;48.298;11.620;2023-06-26T06:18:56;12.25;;;8.85;;
46723;SDS011;32463;48.298;11.620;2023-06-26T06:21:23;10.82;;;8.48;;
46723;SDS011;32463;48.298;11.620;2023-06-26T06:23:49;9.90;;;7.53;;
46723;SDS011;32463;48.298;11.620;2023-06-26T06:26:15;9.45;;;7.28;;
46723;SDS011;32463;48.298;11.620;2023-06-26T06:28:43;10.38;;;7.47;;
46723;SDS011;32463;48.298;11.620;2023-06-26T06:31:09;10.65;;;7.45;;
46723;SDS011;32463;48.298;11.620;2023-06-26T06:33:35;10.82;;;7.07;;
46723;SDS011;32463;48.298;11.620;2023-06-26T06:36:02;10.82;;;7.78;;
46723;SDS011;32463;48.298;11.620;2023-06-26T06:38:30;10.18;;;7.18;;
46723;SDS011;32463;48.298;11.620;2023-06-26T06:40:56;10.52;;;7.45;;
46723;SDS011;32463;48.298;11.620;2023-06-26T06:43:23;10.80;;;7.60;;
46723;SDS011;32463;48.298;11.620;2023-06-26T06:45:49;12.98;;;7.05;;
46723;SDS011;32463;48.298;11.620;2023-06-26T06:48:16;9.30;;;6.93;;
46723;SDS011;32463;48.298;11.620;2023-06-26T06:50:42;10.68;;;6.97;;
46723;SDS011;32463;48.298;11.620;2023-06-26T06:53:09;12.65;;;7.57;;
46723;SDS011;32463;48.298;11.620;2023-06-26T06:55:35;10.43;;;6.97;;
46723;SDS011;32463;48.298;11.620;2023-06-26T06:58:02;9.43;;;7.43;;
46723;SDS011;32463;48.298;11.620;2023-06-26T07:00:28;28.55;;;19.63;;
46723;SDS011;32463;48.298;11.620;2023-06-26T07:02:56;10.63;;;7.72;;
46723;SDS011;32463;48.298;11.620;2023-06-26T07:05:23;12.27;;;7.20;;
46723;SDS011;32463;48.298;11.620;2023-06-26T07:07:49;10.15;;;6.88;;
46723;SDS011;32463;48.298;11.620;2023-06-26T07:10:16;9.95;;;6.97;;
46723;SDS011;32463;48.298;11.620;2023-06-26T07:12:42;9.35;;;6.85;;
46723;SDS011;32463;48.298;11.620;2023-06-26T07:15:10;9.93;;;7.35;;
46723;SDS011;32463;48.298;11.620;2023-06-26T07:17:36;10.85;;;7.10;;
46723;SDS011;32463;48.298;11.620;2023-06-26T07:20:04;8.95;;;6.90;;
46723;SDS011;32463;48.298;11.620;2023-06-26T07:22:36;9.15;;;6.38;;
46723;SDS011;32463;48.298;11.620;2023-06-26T07:25:04;8.15;;;6.57;;
46723;SDS011;32463;48.298;11.620;2023-06-26T07:27:34;8.43;;;6.68;;
46723;SDS011;32463;48.298;11.620;2023-06-26T07:30:01;8.00;;;6.78;;
46723;SDS011;32463;48.298;11.620;2023-06-26T07:32:28;8.52;;;6.53;;
46723;SDS011;32463;48.298;11.620;2023-06-26T07:34:54;9.35;;;6.95;;
46723;SDS011;32463;48.298;11.620;2023-06-26T07:37:21;12.27;;;7.25;;
46723;SDS011;32463;48.298;11.620;2023-06-26T07:39:49;13.63;;;7.57;;
46723;SDS011;32463;48.298;11.620;2023-06-26T07:42:15;9.05;;;7.22;;
46723;SDS011;32463;48.298;11.620;2023-06-26T07:44:42;10.80;;;7.57;;
46723;SDS011;32463;48.298;11.620;2023-06-26T07:47:09;11.77;;;7.85;;
46723;SDS011;32463;48.298;11.620;2023-06-26T07:49:36;8.85;;;7.45;;
46723;SDS011;32463;48.298;11.620;2023-06-26T07:52:04;9.52;;;7.80;;
46723;SDS011;32463;48.298;11.620;2023-06-26T07:54:31;12.45;;;7.68;;
46723;SDS011;32463;48.298;11.620;2023-06-26T07:56:58;10.77;;;7.47;;
46723;SDS011;32463;48.298;11.620;2023-06-26T07:59:29;11.20;;;8.57;;
46723;SDS011;32463;48.298;11.620;2023-06-26T08:01:57;11.27;;;7.13;;
46723;SDS011;32463;48.298;11.620;2023-06-26T08:04:24;9.52;;;7.07;;
46723;SDS011;32463;48.298;11.620;2023-06-26T08:06:52;11.05;;;7.30;;
46723;SDS011;32463;48.298;11.620;2023-06-26T08:09:22;10.45;;;6.75;;
46723;SDS011;32463;48.298;11.620;2023-06-26T08:11:50;14.40;;;7.07;;
46723;SDS011;32463;48.298;11.620;2023-06-26T08:14:17;8.43;;;6.95;;
46723;SDS011;32463;48.298;11.620;2023-06-26T08:16:44;9.18;;;7.35;;
46723;SDS011;32463;48.298;11.620;2023-06-26T08:19:13;13.40;;;7.60;;
46723;SDS011;32463;48.298;11.620;2023-06-26T08:21:40;9.35;;;6.60;;
46723;SDS011;32463;48.298;11.620;2023-06-26T08:24:08;11.75;;;7.40;;
46723;SDS011;32463;48.298;11.620;2023-06-26T08:26:35;8.20;;;7.05;;
46723;SDS011;32463;48.298;11.620;2023-06-26T08:29:02;11.50;;;7.53;;
46723;SDS011;32463;48.298;11.620;2023-06-26T08:31:33;10.23;;;7.20;;
46723;SDS011;32463;48.298;11.620;2023-06-26T08:34:03;11.45;;;7.55;;
46723;SDS011;32463;48.298;11.620;2023-06-26T08:36:30;10.88;;;7.28;;
46723;SDS011;32463;48.298;11.620;2023-06-26T08:38:57;8.40;;;6.95;;
46723;SDS011;32463;48.298;11.620;2023-06-26T08:41:24;16.27;;;7.75;;
46723;SDS011;32463;48.298;11.620;2023-06-26T08:43:51;11.70;;;6.78;;
46723;SDS011;32463;48.298;11.620;2023-06-26T08:46:18;7.65;;;6.70;;
46723;SDS011;32463;48.298;11.620;2023-06-26T08:48:48;9.75;;;7.00;;
46723;SDS011;32463;48.298;11.620;2023-06-26T08:51:19;9.15;;;6.43;;
46723;SDS011;32463;48.298;11.620;2023-06-26T08:53:56;7.38;;;6.28;;
46723;SDS011;32463;48.298;11.620;2023-06-26T08:56:27;9.75;;;6.25;;
46723;SDS011;32463;48.298;11.620;2023-06-26T08:58:58;7.97;;;6.60;;
46723;SDS011;32463;48.298;11.620;2023-06-26T09:01:25;10.70;;;6.10;;
46723;SDS011;32463;48.298;11.620;2023-06-26T09:03:51;8.35;;;6.43;;
46723;SDS011;32463;48.298;11.620;2023-06-26T09:06:18;9.00;;;6.32;;
46723;SDS011;32463;48.298;11.620;2023-06-26T09:08:45;6.93;;;6.22;;
46723;SDS011;32463;48.298;11.620;2023-06-26T09:11:11;12.98;;;6.88;;
46723;SDS011;32463;48.298;11.620;2023-06-26T09:13:39;9.43;;;6.10;;
46723;SDS011;32463;48.298;11.620;2023-06-26T09:16:06;7.70;;;6.22;;
46723;SDS011;32463;48.298;11.620;2023-06-26T09:18:33;11.40;;;6.53;;
46723;SDS011;32463;48.298;11.620;2023-06-26T09:21:00;8.88;;;6.10;;
46723;SDS011;32463;48.298;11.620;2023-06-26T09:25:58;10.55;;;6.22;;
46723;SDS011;32463;48.298;11.620;2023-06-26T09:28:24;9.48;;;5.80;;
46723;SDS011;32463;48.298;11.620;2023-06-26T09:30:51;7.18;;;5.47;;
46723;SDS011;32463;48.298;11.620;2023-06-26T09:33:18;9.02;;;5.35;;
46723;SDS011;32463;48.298;11.620;2023-06-26T09:35:46;7.00;;;5.50;;
46723;SDS011;32463;48.298;11.620;2023-06-26T09:38:13;9.20;;;5.82;;
46723;SDS011;32463;48.298;11.620;2023-06-26T09:40:42;9.68;;;5.65;;
46723;SDS011;32463;48.298;11.620;2023-06-26T09:43:12;7.63;;;5.97;;
46723;SDS011;32463;48.298;11.620;2023-06-26T09:45:40;6.78;;;5.40;;
46723;SDS011;32463;48.298;11.620;2023-06-26T09:48:06;8.40;;;4.75;;
46723;SDS011;32463;48.298;11.620;2023-06-26T09:50:33;6.72;;;5.22;;
46723;SDS011;32463;48.298;11.620;2023-06-26T09:53:08;8.50;;;6.07;;
46723;SDS011;32463;48.298;11.620;2023-06-26T09:55:39;10.43;;;5.10;;
46723;SDS011;32463;48.298;11.620;2023-06-26T09:58:09;5.75;;;5.07;;
46723;SDS011;32463;48.298;11.620;2023-06-26T10:00:39;6.57;;;5.70;;
46723;SDS011;32463;48.298;11.620;2023-06-26T10:03:07;5.97;;;5.10;;
46723;SDS011;32463;48.298;11.620;2023-06-26T10:05:33;7.90;;;5.70;;
46723;SDS011;32463;48.298;11.620;2023-06-26T10:08:00;6.25;;;4.88;;
46723;SDS011;32463;48.298;11.620;2023-06-26T10:10:28;5.85;;;5.25;;
46723;SDS011;32463;48.298;11.620;2023-06-26T10:12:57;7.43;;;5.43;;
46723;SDS011;32463;48.298;11.620;2023-06-26T10:15:27;5.72;;;4.80;;
46723;SDS011;32463;48.298;11.620;2023-06-26T10:17:55;6.50;;;5.35;;
46723;SDS011;32463;48.298;11.620;2023-06-26T10:20:23;6.60;;;4.88;;
46723;SDS011;32463;48.298;11.620;2023-06-26T10:22:53;6.50;;;4.90;;
46723;SDS011;32463;48.298;11.620;2023-06-26T10:25:22;9.52;;;4.95;;
46723;SDS011;32463;48.298;11.620;2023-06-26T10:27:54;5.65;;;4.65;;
46723;SDS011;32463;48.298;11.620;2023-06-26T10:30:24;9.63;;;4.68;;
46723;SDS011;32463;48.298;11.620;2023-06-26T10:32:54;9.00;;;4.88;;
46723;SDS011;32463;48.298;11.620;2023-06-26T10:35:21;5.03;;;4.53;;
46723;SDS011;32463;48.298;11.620;2023-06-26T10:37:48;9.43;;;4.93;;
46723;SDS011;32463;48.298;11.620;2023-06-26T10:40:24;5.80;;;5.18;;
46723;SDS011;32463;48.298;11.620;2023-06-26T10:42:52;7.05;;;5.03;;
46723;SDS011;32463;48.298;11.620;2023-06-26T10:45:32;7.55;;;4.88;;
46723;SDS011;32463;48.298;11.620;2023-06-26T10:48:00;8.23;;;4.97;;
46723;SDS011;32463;48.298;11.620;2023-06-26T10:50:30;9.10;;;4.72;;
46723;SDS011;32463;48.298;11.620;2023-06-26T10:53:10;5.27;;;4.17;;
46723;SDS011;32463;48.298;11.620;2023-06-26T10:55:47;5.93;;;4.57;;
46723;SDS011;32463;48.298;11.620;2023-06-26T11:01:27;5.10;;;4.60;;
46723;SDS011;32463;48.298;11.620;2023-06-26T11:06:26;5.55;;;3.75;;
46723;SDS011;32463;48.298;11.620;2023-06-26T11:08:54;5.97;;;4.40;;
46723;SDS011;32463;48.298;11.620;2023-06-26T11:14:18;4.73;;;4.03;;
46723;SDS011;32463;48.298;11.620;2023-06-26T11:16:49;7.63;;;4.35;;
46723;SDS011;32463;48.298;11.620;2023-06-26T11:19:19;6.55;;;4.20;;
46723;SDS011;32463;48.298;11.620;2023-06-26T11:21:46;5.55;;;4.57;;
46723;SDS011;32463;48.298;11.620;2023-06-26T11:24:14;6.25;;;4.35;;
46723;SDS011;32463;48.298;11.620;2023-06-26T11:26:41;4.55;;;4.10;;
46723;SDS011;32463;48.298;11.620;2023-06-26T11:29:09;5.65;;;4.65;;
46723;SDS011;32463;48.298;11.620;2023-06-26T11:31:37;5.50;;;4.53;;
46723;SDS011;32463;48.298;11.620;2023-06-26T11:34:05;6.28;;;4.47;;
46723;SDS011;32463;48.298;11.620;2023-06-26T11:36:37;5.60;;;4.60;;
46723;SDS011;32463;48.298;11.620;2023-06-26T11:39:04;7.38;;;4.70;;
46723;SDS011;32463;48.298;11.620;2023-06-26T11:41:32;7.38;;;4.68;;
46723;SDS011;32463;48.298;11.620;2023-06-26T11:44:00;8.25;;;4.85;;
46723;SDS011;32463;48.298;11.620;2023-06-26T11:46:28;7.28;;;4.90;;
46723;SDS011;32463;48.298;11.620;2023-06-26T11:48:54;5.82;;;4.65;;
46723;SDS011;32463;48.298;11.620;2023-06-26T11:51:21;6.47;;;4.10;;
46723;SDS011;32463;48.298;11.620;2023-06-26T11:53:47;9.18;;;4.35;;
46723;SDS011;32463;48.298;11.620;2023-06-26T11:56:14;7.63;;;4.95;;
46723;SDS011;32463;48.298;11.620;2023-06-26T11:58:59;5.07;;;3.92;;
46723;SDS011;32463;48.298;11.620;2023-06-26T12:01:26;5.50;;;4.68;;
46723;SDS011;32463;48.298;11.620;2023-06-26T12:03:58;5.75;;;5.03;;
46723;SDS011;32463;48.298;11.620;2023-06-26T12:06:26;6.57;;;4.30;;
46723;SDS011;32463;48.298;11.620;2023-06-26T12:08:53;5.30;;;4.50;;
46723;SDS011;32463;48.298;11.620;2023-06-26T12:11:22;6.15;;;4.55;;
46723;SDS011;32463;48.298;11.620;2023-06-26T12:13:50;5.65;;;4.45;;
46723;SDS011;32463;48.298;11.620;2023-06-26T12:16:17;5.78;;;4.65;;
46723;SDS011;32463;48.298;11.620;2023-06-26T12:18:44;5.53;;;4.57;;
46723;SDS011;32463;48.298;11.620;2023-06-26T12:24:09;8.15;;;4.80;;
46723;SDS011;32463;48.298;11.620;2023-06-26T12:26:43;5.45;;;4.45;;
46723;SDS011;32463;48.298;11.620;2023-06-26T12:29:12;7.30;;;4.63;;
46723;SDS011;32463;48.298;11.620;2023-06-26T12:31:44;6.68;;;4.30;;
46723;SDS011;32463;48.298;11.620;2023-06-26T12:34:13;6.18;;;4.88;;
46723;SDS011;32463;48.298;11.620;2023-06-26T12:36:49;7.75;;;4.85;;
46723;SDS011;32463;48.298;11.620;2023-06-26T12:39:17;9.80;;;4.90;;
46723;SDS011;32463;48.298;11.620;2023-06-26T12:41:49;9.30;;;5.22;;
46723;SDS011;32463;48.298;11.620;2023-06-26T12:46:53;14.50;;;5.00;;
46723;SDS011;32463;48.298;11.620;2023-06-26T12:49:30;7.22;;;4.80;;
46723;SDS011;32463;48.298;11.620;2023-06-26T12:52:07;6.90;;;4.70;;
46723;SDS011;32463;48.298;11.620;2023-06-26T12:54:38;6.78;;;4.90;;
46723;SDS011;32463;48.298;11.620;2023-06-26T12:57:06;8.88;;;5.07;;
46723;SDS011;32463;48.298;11.620;2023-06-26T12:59:33;14.98;;;5.20;;
46723;SDS011;32463;48.298;11.620;2023-06-26T13:02:02;7.05;;;5.15;;
46723;SDS011;32463;48.298;11.620;2023-06-26T13:04:29;6.60;;;5.15;;
46723;SDS011;32463;48.298;11.620;2023-06-26T13:06:56;5.75;;;5.00;;
46723;SDS011;32463;48.298;11.620;2023-06-26T13:09:23;6.10;;;4.90;;
46723;SDS011;32463;48.298;11.620;2023-06-26T13:11:53;5.60;;;4.88;;
46723;SDS011;32463;48.298;11.620;2023-06-26T13:14:19;6.13;;;5.10;;
46723;SDS011;32463;48.298;11.620;2023-06-26T13:16:46;8.38;;;5.07;;
46723;SDS011;32463;48.298;11.620;2023-06-26T13:19:13;6.95;;;5.43;;
46723;SDS011;32463;48.298;11.620;2023-06-26T13:21:39;9.50;;;5.40;;
46723;SDS011;32463;48.298;11.620;2023-06-26T13:24:07;7.53;;;5.72;;
46723;SDS011;32463;48.298;11.620;2023-06-26T13:26:33;8.35;;;5.40;;
46723;SDS011;32463;48.298;11.620;2023-06-26T13:29:00;6.25;;;5.05;;
46723;SDS011;32463;48.298;11.620;2023-06-26T13:31:26;6.78;;;5.10;;
46723;SDS011;32463;48.298;11.620;2023-06-26T13:33:53;6.13;;;4.85;;
46723;SDS011;32463;48.298;11.620;2023-06-26T13:36:19;7.20;;;4.90;;
46723;SDS011;32463;48.298;11.620;2023-06-26T13:38:47;5.80;;;4.78;;
46723;SDS011;32463;48.298;11.620;2023-06-26T13:41:20;9.27;;;5.22;;
46723;SDS011;32463;48.298;11.620;2023-06-26T13:43:50;8.73;;;4.88;;
46723;SDS011;32463;48.298;11.620;2023-06-26T13:46:16;7.38;;;5.10;;
46723;SDS011;32463;48.298;11.620;2023-06-26T13:48:44;4.90;;;4.30;;
46723;SDS011;32463;48.298;11.620;2023-06-26T13:51:11;7.50;;;4.57;;
46723;SDS011;32463;48.298;11.620;2023-06-26T13:53:37;7.93;;;4.88;;
46723;SDS011;32463;48.298;11.620;2023-06-26T13:56:04;5.95;;;4.55;;
46723;SDS011;32463;48.298;11.620;2023-06-26T13:58:31;5.47;;;4.65;;
46723;SDS011;32463;48.298;11.620;2023-06-26T14:00:58;6.03;;;4.85;;
46723;SDS011;32463;48.298;11.620;2023-06-26T14:03:26;5.30;;;4.45;;
46723;SDS011;32463;48.298;11.620;2023-06-26T14:05:53;7.55;;;4.20;;
46723;SDS011;32463;48.298;11.620;2023-06-26T14:08:20;5.88;;;4.30;;
46723;SDS011;32463;48.298;11.620;2023-06-26T14:10:47;4.68;;;4.03;;
46723;SDS011;32463;48.298;11.620;2023-06-26T14:13:13;6.80;;;4.53;;
46723;SDS011;32463;48.298;11.620;2023-06-26T14:15:41;6.85;;;4.75;;
46723;SDS011;32463;48.298;11.620;2023-06-26T14:18:07;9.05;;;4.57;;
46723;SDS011;32463;48.298;11.620;2023-06-26T14:20:34;7.10;;;4.70;;
46723;SDS011;32463;48.298;11.620;2023-06-26T14:23:01;6.90;;;4.78;;
46723;SDS011;32463;48.298;11.620;2023-06-26T14:25:28;6.38;;;4.50;;
46723;SDS011;32463;48.298;11.620;2023-06-26T14:27:55;6.78;;;5.00;;
46723;SDS011;32463;48.298;11.620;2023-06-26T14:30:22;7.00;;;4.78;;
46723;SDS011;32463;48.298;11.620;2023-06-26T14:32:49;6.93;;;4.45;;
46723;SDS011;32463;48.298;11.620;2023-06-26T14:35:15;5.18;;;4.68;;
46723;SDS011;32463;48.298;11.620;2023-06-26T14:37:42;7.70;;;4.50;;
46723;SDS011;32463;48.298;11.620;2023-06-26T14:40:09;7.32;;;4.90;;
46723;SDS011;32463;48.298;11.620;2023-06-26T14:42:35;5.22;;;4.55;;
46723;SDS011;32463;48.298;11.620;2023-06-26T14:45:02;5.50;;;4.68;;
46723;SDS011;32463;48.298;11.620;2023-06-26T14:47:29;5.88;;;4.70;;
46723;SDS011;32463;48.298;11.620;2023-06-26T14:49:55;6.10;;;4.40;;
46723;SDS011;32463;48.298;11.620;2023-06-26T14:52:22;7.38;;;4.97;;
46723;SDS011;32463;48.298;11.620;2023-06-26T14:54:48;6.50;;;4.45;;